sensor_id;sensor_type;location;lat;lon;timestamp;P1;durP1;ratioP1;P2;durP2;ratioP2
39176;SDS011;24904;52.208;21.192;2023-02-04T00:01:51;14.30;;;6.80;;
39176;SDS011;24904;52.208;21.192;2023-02-04T00:06:56;10.20;;;5.80;;
39176;SDS011;24904;52.208;21.192;2023-02-04T00:12:01;11.00;;;6.70;;
39176;SDS011;24904;52.208;21.192;2023-02-04T00:17:06;7.50;;;5.30;;
39176;SDS011;24904;52.208;21.192;2023-02-04T00:22:13;10.60;;;5.60;;
39176;SDS011;24904;52.208;21.192;2023-02-04T00:27:18;9.50;;;5.60;;
39176;SDS011;24904;52.208;21.192;2023-02-04T00:32:23;8.90;;;6.30;;
39176;SDS011;24904;52.208;21.192;2023-02-04T00:37:29;8.00;;;4.90;;
39176;SDS011;24904;52.208;21.192;2023-02-04T00:42:34;9.90;;;5.80;;
39176;SDS011;24904;52.208;21.192;2023-02-04T00:47:39;8.10;;;5.30;;
39176;SDS011;24904;52.208;21.192;2023-02-04T00:52:44;11.00;;;6.90;;
39176;SDS011;24904;52.208;21.192;2023-02-04T00:57:49;9.70;;;6.10;;
39176;SDS011;24904;52.208;21.192;2023-02-04T01:02:54;9.20;;;5.90;;
39176;SDS011;24904;52.208;21.192;2023-02-04T01:07:59;9.50;;;5.20;;
39176;SDS011;24904;52.208;21.192;2023-02-04T01:13:04;8.50;;;5.80;;
39176;SDS011;24904;52.208;21.192;2023-02-04T01:18:09;7.60;;;5.10;;
39176;SDS011;24904;52.208;21.192;2023-02-04T01:23:16;8.30;;;5.50;;
39176;SDS011;24904;52.208;21.192;2023-02-04T01:28:21;9.00;;;5.90;;
39176;SDS011;24904;52.208;21.192;2023-02-04T01:33:26;7.90;;;5.30;;
39176;SDS011;24904;52.208;21.192;2023-02-04T01:38:32;10.20;;;5.70;;
39176;SDS011;24904;52.208;21.192;2023-02-04T01:43:37;8.60;;;5.50;;
39176;SDS011;24904;52.208;21.192;2023-02-04T01:48:42;8.60;;;5.30;;
39176;SDS011;24904;52.208;21.192;2023-02-04T01:53:47;8.90;;;5.40;;
39176;SDS011;24904;52.208;21.192;2023-02-04T01:58:52;8.20;;;5.40;;
39176;SDS011;24904;52.208;21.192;2023-02-04T02:03:58;8.40;;;5.00;;
39176;SDS011;24904;52.208;21.192;2023-02-04T02:09:03;10.10;;;5.30;;
39176;SDS011;24904;52.208;21.192;2023-02-04T02:14:09;7.40;;;5.10;;
39176;SDS011;24904;52.208;21.192;2023-02-04T02:19:16;10.60;;;5.60;;
39176;SDS011;24904;52.208;21.192;2023-02-04T02:24:29;8.80;;;5.40;;
39176;SDS011;24904;52.208;21.192;2023-02-04T02:29:36;7.40;;;4.90;;
39176;SDS011;24904;52.208;21.192;2023-02-04T02:34:42;8.90;;;5.20;;
39176;SDS011;24904;52.208;21.192;2023-02-04T02:39:48;7.50;;;4.30;;
39176;SDS011;24904;52.208;21.192;2023-02-04T02:44:53;10.60;;;4.50;;
39176;SDS011;24904;52.208;21.192;2023-02-04T02:49:59;7.20;;;4.40;;
39176;SDS011;24904;52.208;21.192;2023-02-04T02:55:04;8.80;;;4.50;;
39176;SDS011;24904;52.208;21.192;2023-02-04T03:00:16;5.70;;;3.70;;
39176;SDS011;24904;52.208;21.192;2023-02-04T03:05:26;8.10;;;4.60;;
39176;SDS011;24904;52.208;21.192;2023-02-04T03:10:35;8.30;;;4.20;;
39176;SDS011;24904;52.208;21.192;2023-02-04T03:15:41;9.00;;;4.10;;
39176;SDS011;24904;52.208;21.192;2023-02-04T03:20:48;7.10;;;4.00;;
39176;SDS011;24904;52.208;21.192;2023-02-04T03:25:54;7.40;;;4.30;;
39176;SDS011;24904;52.208;21.192;2023-02-04T03:30:59;7.70;;;4.90;;
39176;SDS011;24904;52.208;21.192;2023-02-04T03:36:05;6.30;;;4.00;;
39176;SDS011;24904;52.208;21.192;2023-02-04T03:41:10;5.80;;;3.60;;
39176;SDS011;24904;52.208;21.192;2023-02-04T03:46:15;6.40;;;4.20;;
39176;SDS011;24904;52.208;21.192;2023-02-04T03:51:20;5.50;;;3.70;;
39176;SDS011;24904;52.208;21.192;2023-02-04T03:56:25;6.70;;;3.40;;
39176;SDS011;24904;52.208;21.192;2023-02-04T04:01:30;7.30;;;3.30;;
39176;SDS011;24904;52.208;21.192;2023-02-04T04:06:35;6.80;;;3.70;;
39176;SDS011;24904;52.208;21.192;2023-02-04T04:11:40;5.20;;;3.60;;
39176;SDS011;24904;52.208;21.192;2023-02-04T04:16:45;6.10;;;3.60;;
39176;SDS011;24904;52.208;21.192;2023-02-04T04:21:50;8.20;;;3.50;;
39176;SDS011;24904;52.208;21.192;2023-02-04T04:26:55;5.60;;;3.80;;
39176;SDS011;24904;52.208;21.192;2023-02-04T04:32:00;6.00;;;3.70;;
39176;SDS011;24904;52.208;21.192;2023-02-04T04:37:06;4.60;;;3.30;;
39176;SDS011;24904;52.208;21.192;2023-02-04T04:42:11;5.50;;;3.40;;
39176;SDS011;24904;52.208;21.192;2023-02-04T04:47:16;7.40;;;3.80;;
39176;SDS011;24904;52.208;21.192;2023-02-04T04:52:21;6.50;;;3.90;;
39176;SDS011;24904;52.208;21.192;2023-02-04T04:57:26;6.00;;;3.40;;
39176;SDS011;24904;52.208;21.192;2023-02-04T05:02:31;7.20;;;4.00;;
39176;SDS011;24904;52.208;21.192;2023-02-04T05:07:36;7.50;;;4.00;;
39176;SDS011;24904;52.208;21.192;2023-02-04T05:12:41;6.00;;;4.20;;
39176;SDS011;24904;52.208;21.192;2023-02-04T05:17:46;7.60;;;4.80;;
39176;SDS011;24904;52.208;21.192;2023-02-04T05:22:51;8.70;;;5.80;;
39176;SDS011;24904;52.208;21.192;2023-02-04T05:27:57;8.00;;;4.90;;
39176;SDS011;24904;52.208;21.192;2023-02-04T05:33:02;9.60;;;5.10;;
39176;SDS011;24904;52.208;21.192;2023-02-04T05:38:07;8.30;;;5.60;;
39176;SDS011;24904;52.208;21.192;2023-02-04T05:43:12;8.00;;;4.90;;
39176;SDS011;24904;52.208;21.192;2023-02-04T05:48:17;8.00;;;5.40;;
39176;SDS011;24904;52.208;21.192;2023-02-04T05:53:22;9.70;;;4.50;;
39176;SDS011;24904;52.208;21.192;2023-02-04T05:58:27;9.60;;;4.70;;
39176;SDS011;24904;52.208;21.192;2023-02-04T06:03:34;7.30;;;4.10;;
39176;SDS011;24904;52.208;21.192;2023-02-04T06:08:39;7.00;;;4.30;;
39176;SDS011;24904;52.208;21.192;2023-02-04T06:13:44;5.40;;;3.70;;
39176;SDS011;24904;52.208;21.192;2023-02-04T06:18:49;7.60;;;4.00;;
39176;SDS011;24904;52.208;21.192;2023-02-04T06:23:54;7.20;;;4.30;;
39176;SDS011;24904;52.208;21.192;2023-02-04T06:28:59;5.20;;;3.60;;
39176;SDS011;24904;52.208;21.192;2023-02-04T06:34:04;5.90;;;3.90;;
39176;SDS011;24904;52.208;21.192;2023-02-04T06:39:09;7.00;;;4.40;;
39176;SDS011;24904;52.208;21.192;2023-02-04T06:44:14;10.30;;;4.70;;
39176;SDS011;24904;52.208;21.192;2023-02-04T06:49:19;6.60;;;3.90;;
39176;SDS011;24904;52.208;21.192;2023-02-04T06:54:25;8.60;;;4.30;;
39176;SDS011;24904;52.208;21.192;2023-02-04T06:59:30;10.50;;;4.90;;
39176;SDS011;24904;52.208;21.192;2023-02-04T07:04:35;8.00;;;3.70;;
39176;SDS011;24904;52.208;21.192;2023-02-04T07:09:40;8.00;;;4.10;;
39176;SDS011;24904;52.208;21.192;2023-02-04T07:14:45;6.90;;;3.50;;
39176;SDS011;24904;52.208;21.192;2023-02-04T07:19:50;6.80;;;3.70;;
39176;SDS011;24904;52.208;21.192;2023-02-04T07:24:55;8.60;;;4.60;;
39176;SDS011;24904;52.208;21.192;2023-02-04T07:30:00;6.60;;;4.40;;
39176;SDS011;24904;52.208;21.192;2023-02-04T07:35:06;5.80;;;3.30;;
39176;SDS011;24904;52.208;21.192;2023-02-04T07:40:12;5.80;;;3.00;;
39176;SDS011;24904;52.208;21.192;2023-02-04T07:45:18;6.50;;;3.50;;
39176;SDS011;24904;52.208;21.192;2023-02-04T07:50:23;8.10;;;3.30;;
39176;SDS011;24904;52.208;21.192;2023-02-04T07:55:28;4.50;;;2.40;;
39176;SDS011;24904;52.208;21.192;2023-02-04T08:00:33;6.70;;;3.10;;
39176;SDS011;24904;52.208;21.192;2023-02-04T08:05:38;8.30;;;3.10;;
39176;SDS011;24904;52.208;21.192;2023-02-04T08:10:43;6.50;;;2.80;;
39176;SDS011;24904;52.208;21.192;2023-02-04T08:15:48;6.20;;;2.80;;
39176;SDS011;24904;52.208;21.192;2023-02-04T08:20:53;7.50;;;3.00;;
39176;SDS011;24904;52.208;21.192;2023-02-04T08:25:59;5.70;;;2.70;;
39176;SDS011;24904;52.208;21.192;2023-02-04T08:31:05;4.80;;;2.70;;
39176;SDS011;24904;52.208;21.192;2023-02-04T08:36:12;5.50;;;2.80;;
39176;SDS011;24904;52.208;21.192;2023-02-04T08:41:17;6.90;;;3.10;;
39176;SDS011;24904;52.208;21.192;2023-02-04T08:46:22;4.20;;;2.40;;
39176;SDS011;24904;52.208;21.192;2023-02-04T08:51:27;7.00;;;2.90;;
39176;SDS011;24904;52.208;21.192;2023-02-04T08:56:32;5.50;;;2.70;;
39176;SDS011;24904;52.208;21.192;2023-02-04T09:01:37;5.10;;;2.70;;
39176;SDS011;24904;52.208;21.192;2023-02-04T09:06:42;4.60;;;2.30;;
39176;SDS011;24904;52.208;21.192;2023-02-04T09:11:47;4.20;;;2.20;;
39176;SDS011;24904;52.208;21.192;2023-02-04T09:16:52;4.10;;;2.10;;
39176;SDS011;24904;52.208;21.192;2023-02-04T09:21:57;4.50;;;2.10;;
39176;SDS011;24904;52.208;21.192;2023-02-04T09:27:02;3.80;;;1.70;;
39176;SDS011;24904;52.208;21.192;2023-02-04T09:32:07;3.10;;;1.90;;
39176;SDS011;24904;52.208;21.192;2023-02-04T09:37:12;4.00;;;1.60;;
39176;SDS011;24904;52.208;21.192;2023-02-04T09:42:17;3.50;;;1.80;;
39176;SDS011;24904;52.208;21.192;2023-02-04T09:47:24;3.20;;;1.80;;
39176;SDS011;24904;52.208;21.192;2023-02-04T09:52:31;3.30;;;1.70;;
39176;SDS011;24904;52.208;21.192;2023-02-04T09:57:36;2.30;;;1.40;;
39176;SDS011;24904;52.208;21.192;2023-02-04T10:02:41;3.10;;;1.40;;
39176;SDS011;24904;52.208;21.192;2023-02-04T10:07:47;3.90;;;1.60;;
39176;SDS011;24904;52.208;21.192;2023-02-04T10:12:54;6.40;;;1.80;;
39176;SDS011;24904;52.208;21.192;2023-02-04T10:18:02;3.20;;;1.80;;
39176;SDS011;24904;52.208;21.192;2023-02-04T10:23:09;4.50;;;2.00;;
39176;SDS011;24904;52.208;21.192;2023-02-04T10:28:15;4.90;;;1.90;;
39176;SDS011;24904;52.208;21.192;2023-02-04T10:33:22;6.00;;;2.20;;
39176;SDS011;24904;52.208;21.192;2023-02-04T10:38:27;4.90;;;2.20;;
39176;SDS011;24904;52.208;21.192;2023-02-04T10:43:32;4.70;;;2.20;;
39176;SDS011;24904;52.208;21.192;2023-02-04T10:48:40;4.20;;;2.60;;
39176;SDS011;24904;52.208;21.192;2023-02-04T10:53:45;5.00;;;2.90;;
39176;SDS011;24904;52.208;21.192;2023-02-04T10:59:11;5.70;;;2.70;;
39176;SDS011;24904;52.208;21.192;2023-02-04T11:04:24;4.80;;;1.90;;
39176;SDS011;24904;52.208;21.192;2023-02-04T11:09:30;5.30;;;2.80;;
39176;SDS011;24904;52.208;21.192;2023-02-04T11:14:35;6.00;;;2.40;;
39176;SDS011;24904;52.208;21.192;2023-02-04T11:19:40;5.30;;;2.80;;
39176;SDS011;24904;52.208;21.192;2023-02-04T11:24:46;11.10;;;2.90;;
39176;SDS011;24904;52.208;21.192;2023-02-04T11:29:51;6.60;;;3.00;;
39176;SDS011;24904;52.208;21.192;2023-02-04T11:35:21;6.60;;;3.00;;
39176;SDS011;24904;52.208;21.192;2023-02-04T11:40:30;5.20;;;2.90;;
39176;SDS011;24904;52.208;21.192;2023-02-04T11:45:37;4.40;;;2.80;;
39176;SDS011;24904;52.208;21.192;2023-02-04T11:50:42;4.70;;;2.50;;
39176;SDS011;24904;52.208;21.192;2023-02-04T11:55:58;6.60;;;2.80;;
39176;SDS011;24904;52.208;21.192;2023-02-04T12:01:03;7.10;;;2.40;;
39176;SDS011;24904;52.208;21.192;2023-02-04T12:06:21;4.70;;;2.70;;
39176;SDS011;24904;52.208;21.192;2023-02-04T12:11:28;4.90;;;2.30;;
39176;SDS011;24904;52.208;21.192;2023-02-04T12:16:40;4.70;;;2.50;;
39176;SDS011;24904;52.208;21.192;2023-02-04T12:21:46;4.90;;;2.60;;
39176;SDS011;24904;52.208;21.192;2023-02-04T12:26:51;5.90;;;2.90;;
39176;SDS011;24904;52.208;21.192;2023-02-04T12:31:56;9.80;;;3.60;;
39176;SDS011;24904;52.208;21.192;2023-02-04T12:37:01;8.50;;;3.00;;
39176;SDS011;24904;52.208;21.192;2023-02-04T12:42:06;6.80;;;3.00;;
39176;SDS011;24904;52.208;21.192;2023-02-04T12:47:11;5.00;;;2.80;;
39176;SDS011;24904;52.208;21.192;2023-02-04T12:52:16;6.30;;;2.70;;
39176;SDS011;24904;52.208;21.192;2023-02-04T12:57:21;5.40;;;2.60;;
39176;SDS011;24904;52.208;21.192;2023-02-04T13:02:26;4.40;;;2.50;;
39176;SDS011;24904;52.208;21.192;2023-02-04T13:07:32;4.30;;;2.70;;
39176;SDS011;24904;52.208;21.192;2023-02-04T13:12:37;4.70;;;2.40;;
39176;SDS011;24904;52.208;21.192;2023-02-04T13:17:42;3.60;;;1.80;;
39176;SDS011;24904;52.208;21.192;2023-02-04T13:22:47;5.90;;;2.30;;
39176;SDS011;24904;52.208;21.192;2023-02-04T13:27:52;4.90;;;2.70;;
39176;SDS011;24904;52.208;21.192;2023-02-04T13:32:57;3.20;;;1.40;;
39176;SDS011;24904;52.208;21.192;2023-02-04T13:38:02;4.90;;;2.30;;
39176;SDS011;24904;52.208;21.192;2023-02-04T13:43:07;4.70;;;2.20;;
39176;SDS011;24904;52.208;21.192;2023-02-04T13:48:12;3.70;;;2.10;;
39176;SDS011;24904;52.208;21.192;2023-02-04T13:53:17;3.40;;;1.80;;
39176;SDS011;24904;52.208;21.192;2023-02-04T13:58:22;3.20;;;1.90;;
39176;SDS011;24904;52.208;21.192;2023-02-04T14:03:27;3.60;;;1.40;;
39176;SDS011;24904;52.208;21.192;2023-02-04T14:08:32;3.60;;;2.00;;
39176;SDS011;24904;52.208;21.192;2023-02-04T14:13:37;4.00;;;1.90;;
39176;SDS011;24904;52.208;21.192;2023-02-04T14:18:42;4.40;;;2.50;;
39176;SDS011;24904;52.208;21.192;2023-02-04T14:23:47;3.30;;;2.00;;
39176;SDS011;24904;52.208;21.192;2023-02-04T14:28:52;4.90;;;2.10;;
39176;SDS011;24904;52.208;21.192;2023-02-04T14:33:57;3.40;;;1.60;;
39176;SDS011;24904;52.208;21.192;2023-02-04T14:39:02;3.20;;;1.80;;
39176;SDS011;24904;52.208;21.192;2023-02-04T14:44:07;5.00;;;1.90;;
39176;SDS011;24904;52.208;21.192;2023-02-04T14:49:13;2.90;;;1.60;;
39176;SDS011;24904;52.208;21.192;2023-02-04T14:54:19;2.90;;;1.80;;
39176;SDS011;24904;52.208;21.192;2023-02-04T14:59:24;4.30;;;2.20;;
39176;SDS011;24904;52.208;21.192;2023-02-04T15:04:29;5.30;;;2.60;;
39176;SDS011;24904;52.208;21.192;2023-02-04T15:09:34;5.00;;;2.50;;
39176;SDS011;24904;52.208;21.192;2023-02-04T15:14:39;5.10;;;2.30;;
39176;SDS011;24904;52.208;21.192;2023-02-04T15:19:44;6.60;;;3.20;;
39176;SDS011;24904;52.208;21.192;2023-02-04T15:24:49;9.90;;;4.60;;
39176;SDS011;24904;52.208;21.192;2023-02-04T15:29:54;7.50;;;3.80;;
39176;SDS011;24904;52.208;21.192;2023-02-04T15:34:59;7.10;;;3.20;;
39176;SDS011;24904;52.208;21.192;2023-02-04T15:40:04;6.50;;;3.20;;
39176;SDS011;24904;52.208;21.192;2023-02-04T15:45:11;7.40;;;3.10;;
39176;SDS011;24904;52.208;21.192;2023-02-04T15:50:16;9.00;;;4.20;;
39176;SDS011;24904;52.208;21.192;2023-02-04T15:55:21;6.90;;;3.70;;
39176;SDS011;24904;52.208;21.192;2023-02-04T16:00:26;6.60;;;4.00;;
39176;SDS011;24904;52.208;21.192;2023-02-04T16:05:31;7.40;;;3.80;;
39176;SDS011;24904;52.208;21.192;2023-02-04T16:10:36;10.10;;;5.20;;
39176;SDS011;24904;52.208;21.192;2023-02-04T16:15:41;9.00;;;4.10;;
39176;SDS011;24904;52.208;21.192;2023-02-04T16:20:46;12.60;;;5.10;;
39176;SDS011;24904;52.208;21.192;2023-02-04T16:25:51;12.30;;;5.30;;
39176;SDS011;24904;52.208;21.192;2023-02-04T16:30:56;9.90;;;4.70;;
39176;SDS011;24904;52.208;21.192;2023-02-04T16:36:02;9.00;;;4.20;;
39176;SDS011;24904;52.208;21.192;2023-02-04T16:41:11;12.00;;;5.00;;
39176;SDS011;24904;52.208;21.192;2023-02-04T16:46:16;11.10;;;4.90;;
39176;SDS011;24904;52.208;21.192;2023-02-04T16:51:21;10.90;;;5.40;;
39176;SDS011;24904;52.208;21.192;2023-02-04T16:56:26;14.30;;;6.40;;
39176;SDS011;24904;52.208;21.192;2023-02-04T17:01:35;10.90;;;5.70;;
39176;SDS011;24904;52.208;21.192;2023-02-04T17:06:41;11.20;;;5.60;;
39176;SDS011;24904;52.208;21.192;2023-02-04T17:11:46;12.70;;;5.80;;
39176;SDS011;24904;52.208;21.192;2023-02-04T17:16:51;13.00;;;5.90;;
39176;SDS011;24904;52.208;21.192;2023-02-04T17:21:56;10.80;;;6.00;;
39176;SDS011;24904;52.208;21.192;2023-02-04T17:27:01;13.40;;;6.80;;
39176;SDS011;24904;52.208;21.192;2023-02-04T17:32:06;15.20;;;7.70;;
39176;SDS011;24904;52.208;21.192;2023-02-04T17:37:13;15.40;;;7.20;;
39176;SDS011;24904;52.208;21.192;2023-02-04T17:42:18;17.10;;;7.80;;
39176;SDS011;24904;52.208;21.192;2023-02-04T17:47:23;16.80;;;7.80;;
39176;SDS011;24904;52.208;21.192;2023-02-04T17:52:28;15.40;;;8.00;;
39176;SDS011;24904;52.208;21.192;2023-02-04T17:57:38;19.30;;;9.20;;
39176;SDS011;24904;52.208;21.192;2023-02-04T18:02:44;18.00;;;8.60;;
39176;SDS011;24904;52.208;21.192;2023-02-04T18:07:54;22.30;;;8.70;;
39176;SDS011;24904;52.208;21.192;2023-02-04T18:13:05;22.60;;;10.10;;
39176;SDS011;24904;52.208;21.192;2023-02-04T18:18:21;19.10;;;9.10;;
39176;SDS011;24904;52.208;21.192;2023-02-04T18:23:28;18.40;;;9.90;;
39176;SDS011;24904;52.208;21.192;2023-02-04T18:28:35;16.60;;;8.80;;
39176;SDS011;24904;52.208;21.192;2023-02-04T18:33:42;15.50;;;8.20;;
39176;SDS011;24904;52.208;21.192;2023-02-04T18:38:48;18.20;;;9.30;;
39176;SDS011;24904;52.208;21.192;2023-02-04T18:43:55;19.90;;;9.10;;
39176;SDS011;24904;52.208;21.192;2023-02-04T18:49:08;16.30;;;8.10;;
39176;SDS011;24904;52.208;21.192;2023-02-04T18:54:28;18.00;;;8.90;;
39176;SDS011;24904;52.208;21.192;2023-02-04T18:59:39;17.10;;;8.30;;
39176;SDS011;24904;52.208;21.192;2023-02-04T19:04:45;18.00;;;8.20;;
39176;SDS011;24904;52.208;21.192;2023-02-04T19:09:50;17.40;;;8.30;;
39176;SDS011;24904;52.208;21.192;2023-02-04T19:14:56;15.40;;;7.90;;
39176;SDS011;24904;52.208;21.192;2023-02-04T19:20:04;13.80;;;7.00;;
39176;SDS011;24904;52.208;21.192;2023-02-04T19:25:26;14.50;;;6.80;;
39176;SDS011;24904;52.208;21.192;2023-02-04T19:30:37;17.70;;;8.10;;
39176;SDS011;24904;52.208;21.192;2023-02-04T19:35:48;14.90;;;7.50;;
39176;SDS011;24904;52.208;21.192;2023-02-04T19:40:53;16.60;;;8.50;;
39176;SDS011;24904;52.208;21.192;2023-02-04T19:45:57;20.30;;;10.40;;
39176;SDS011;24904;52.208;21.192;2023-02-04T19:51:14;22.40;;;9.40;;
39176;SDS011;24904;52.208;21.192;2023-02-04T19:56:28;20.60;;;9.70;;
39176;SDS011;24904;52.208;21.192;2023-02-04T20:01:36;19.40;;;10.80;;
39176;SDS011;24904;52.208;21.192;2023-02-04T20:06:42;21.30;;;10.80;;
39176;SDS011;24904;52.208;21.192;2023-02-04T20:11:53;18.60;;;9.00;;
39176;SDS011;24904;52.208;21.192;2023-02-04T20:17:01;20.60;;;9.40;;
39176;SDS011;24904;52.208;21.192;2023-02-04T20:22:27;21.40;;;10.30;;
39176;SDS011;24904;52.208;21.192;2023-02-04T20:27:38;22.60;;;10.80;;
39176;SDS011;24904;52.208;21.192;2023-02-04T20:32:44;23.60;;;10.90;;
39176;SDS011;24904;52.208;21.192;2023-02-04T20:37:54;18.10;;;7.70;;
39176;SDS011;24904;52.208;21.192;2023-02-04T20:43:01;27.70;;;11.90;;
39176;SDS011;24904;52.208;21.192;2023-02-04T20:48:21;23.10;;;11.40;;
39176;SDS011;24904;52.208;21.192;2023-02-04T20:53:36;21.40;;;11.50;;
39176;SDS011;24904;52.208;21.192;2023-02-04T20:58:42;23.60;;;11.60;;
39176;SDS011;24904;52.208;21.192;2023-02-04T21:03:50;29.10;;;11.30;;
39176;SDS011;24904;52.208;21.192;2023-02-04T21:08:55;22.50;;;10.40;;
39176;SDS011;24904;52.208;21.192;2023-02-04T21:14:03;24.20;;;11.30;;
39176;SDS011;24904;52.208;21.192;2023-02-04T21:19:08;21.10;;;10.70;;
39176;SDS011;24904;52.208;21.192;2023-02-04T21:24:13;23.10;;;11.20;;
39176;SDS011;24904;52.208;21.192;2023-02-04T21:29:18;23.40;;;10.90;;
39176;SDS011;24904;52.208;21.192;2023-02-04T21:34:23;25.50;;;12.60;;
39176;SDS011;24904;52.208;21.192;2023-02-04T21:39:28;23.20;;;10.90;;
39176;SDS011;24904;52.208;21.192;2023-02-04T21:44:33;24.30;;;10.50;;
39176;SDS011;24904;52.208;21.192;2023-02-04T21:49:38;23.40;;;10.50;;
39176;SDS011;24904;52.208;21.192;2023-02-04T21:54:43;22.20;;;11.10;;
39176;SDS011;24904;52.208;21.192;2023-02-04T21:59:48;24.40;;;11.40;;
39176;SDS011;24904;52.208;21.192;2023-02-04T22:04:55;22.70;;;11.10;;
39176;SDS011;24904;52.208;21.192;2023-02-04T22:10:00;25.40;;;11.00;;
39176;SDS011;24904;52.208;21.192;2023-02-04T22:15:07;22.90;;;11.00;;
39176;SDS011;24904;52.208;21.192;2023-02-04T22:20:25;26.50;;;12.30;;
39176;SDS011;24904;52.208;21.192;2023-02-04T22:25:31;26.30;;;11.60;;
39176;SDS011;24904;52.208;21.192;2023-02-04T22:30:36;25.90;;;12.20;;
39176;SDS011;24904;52.208;21.192;2023-02-04T22:35:41;24.40;;;11.60;;
39176;SDS011;24904;52.208;21.192;2023-02-04T22:40:46;26.90;;;11.60;;
39176;SDS011;24904;52.208;21.192;2023-02-04T22:45:51;25.60;;;10.60;;
39176;SDS011;24904;52.208;21.192;2023-02-04T22:50:56;30.50;;;13.10;;
39176;SDS011;24904;52.208;21.192;2023-02-04T22:56:04;26.30;;;11.40;;
39176;SDS011;24904;52.208;21.192;2023-02-04T23:01:09;27.50;;;12.70;;
39176;SDS011;24904;52.208;21.192;2023-02-04T23:06:14;24.60;;;11.10;;
39176;SDS011;24904;52.208;21.192;2023-02-04T23:11:19;23.00;;;11.30;;
39176;SDS011;24904;52.208;21.192;2023-02-04T23:16:25;20.90;;;9.90;;
39176;SDS011;24904;52.208;21.192;2023-02-04T23:21:30;18.80;;;10.10;;
39176;SDS011;24904;52.208;21.192;2023-02-04T23:26:35;17.10;;;9.00;;
39176;SDS011;24904;52.208;21.192;2023-02-04T23:31:40;18.70;;;8.70;;
39176;SDS011;24904;52.208;21.192;2023-02-04T23:36:45;17.90;;;9.20;;
39176;SDS011;24904;52.208;21.192;2023-02-04T23:41:51;17.00;;;7.70;;
39176;SDS011;24904;52.208;21.192;2023-02-04T23:46:56;16.00;;;8.50;;
39176;SDS011;24904;52.208;21.192;2023-02-04T23:52:01;13.50;;;6.80;;
39176;SDS011;24904;52.208;21.192;2023-02-04T23:57:08;19.30;;;8.30;;
